createdAt,value
2024-05-09T00:01:33.379Z,2.40
2024-05-09T00:04:03.948Z,1.90
2024-05-09T00:06:35.239Z,2.20
2024-05-09T00:09:05.890Z,3.00
2024-05-09T00:11:36.612Z,1.97
2024-05-09T00:14:07.432Z,2.20
2024-05-09T00:16:40.472Z,2.17
2024-05-09T00:19:11.140Z,2.13
2024-05-09T00:21:45.058Z,2.30
2024-05-09T00:24:15.750Z,2.00
2024-05-09T00:26:46.783Z,2.47
2024-05-09T00:29:18.667Z,2.17
2024-05-09T00:31:51.843Z,1.97
2024-05-09T00:34:23.138Z,2.17
2024-05-09T00:36:54.162Z,2.57
2024-05-09T00:39:24.550Z,2.10
2024-05-09T00:41:55.207Z,2.43
2024-05-09T00:44:26.237Z,1.73
2024-05-09T00:46:59.497Z,2.20
2024-05-09T00:49:30.969Z,2.43
2024-05-09T00:52:02.626Z,2.37
2024-05-09T00:54:33.955Z,2.20
2024-05-09T00:57:06.040Z,1.60
2024-05-09T00:59:37.109Z,1.97
2024-05-09T01:02:15.366Z,1.90
2024-05-09T01:04:46.054Z,2.00
2024-05-09T01:07:16.745Z,1.90
2024-05-09T01:09:47.879Z,2.30
2024-05-09T01:12:18.791Z,2.47
2024-05-09T01:14:49.616Z,1.90
2024-05-09T01:17:23.258Z,2.07
2024-05-09T01:19:54.307Z,2.40
2024-05-09T01:22:27.683Z,2.10
2024-05-09T01:25:00.941Z,2.40
2024-05-09T01:27:31.880Z,2.30
2024-05-09T01:30:04.081Z,2.40
2024-05-09T01:32:37.858Z,2.00
2024-05-09T01:35:10.202Z,2.17
2024-05-09T01:37:40.488Z,2.03
2024-05-09T01:40:18.584Z,1.70
2024-05-09T01:42:52.858Z,1.90
2024-05-09T01:45:23.168Z,2.10
2024-05-09T01:47:54.341Z,1.60
2024-05-09T01:50:36.198Z,2.40
2024-05-09T01:53:10.878Z,1.90
2024-05-09T01:55:47.713Z,2.70
2024-05-09T01:58:18.949Z,2.00
2024-05-09T02:00:49.709Z,2.00
2024-05-09T02:03:20.770Z,2.40
2024-05-09T02:05:52.617Z,1.80
2024-05-09T02:08:24.641Z,2.10
2024-05-09T02:10:58.213Z,2.30
2024-05-09T02:13:29.210Z,2.00
2024-05-09T02:15:59.800Z,1.73
2024-05-09T02:18:30.672Z,1.63
2024-05-09T02:21:01.500Z,2.10
2024-05-09T02:23:32.581Z,2.43
2024-05-09T02:26:05.889Z,1.67
2024-05-09T02:28:36.579Z,1.70
2024-05-09T02:31:07.342Z,1.97
2024-05-09T02:33:38.382Z,1.30
2024-05-09T02:36:10.602Z,1.83
2024-05-09T02:38:38.777Z,1.70
2024-05-09T02:41:12.758Z,2.10
2024-05-09T02:43:40.996Z,1.60
2024-05-09T02:46:12.047Z,2.13
2024-05-09T02:48:40.218Z,1.80
2024-05-09T02:51:11.508Z,2.00
2024-05-09T02:53:39.984Z,2.27
2024-05-09T02:56:13.679Z,1.70
2024-05-09T02:58:41.845Z,1.83
2024-05-09T03:01:12.893Z,2.50
2024-05-09T03:03:45.491Z,2.00
2024-05-09T03:06:16.202Z,2.03
2024-05-09T03:08:45.567Z,2.10
2024-05-09T03:11:27.046Z,2.23
2024-05-09T03:13:55.690Z,1.93
2024-05-09T03:16:26.294Z,2.33
2024-05-09T03:18:55.253Z,2.37
2024-05-09T03:21:25.763Z,2.20
2024-05-09T03:23:53.824Z,1.87
2024-05-09T03:26:27.291Z,1.87
2024-05-09T03:28:55.506Z,2.70
2024-05-09T03:31:26.439Z,1.90
2024-05-09T03:33:54.603Z,2.10
2024-05-09T03:36:25.347Z,1.80
2024-05-09T03:38:56.197Z,2.43
2024-05-09T03:41:29.489Z,1.90
2024-05-09T03:43:57.576Z,2.40
2024-05-09T03:46:28.524Z,2.47
2024-05-09T03:48:56.658Z,2.00
2024-05-09T03:51:27.331Z,2.23
2024-05-09T03:53:55.851Z,2.60
2024-05-09T03:56:29.456Z,2.70
2024-05-09T03:58:57.808Z,2.43
2024-05-09T04:01:30.207Z,2.40
2024-05-09T04:03:58.279Z,2.27
2024-05-09T04:06:29.661Z,2.60
2024-05-09T04:08:57.309Z,2.20
2024-05-09T04:11:30.474Z,2.53
2024-05-09T04:13:58.347Z,2.27
2024-05-09T04:16:28.779Z,2.60
2024-05-09T04:18:56.825Z,2.47
2024-05-09T04:21:27.509Z,2.13
2024-05-09T04:23:57.025Z,2.33
2024-05-09T04:26:30.410Z,2.80
2024-05-09T04:28:58.423Z,2.37
2024-05-09T04:31:29.578Z,2.43
2024-05-09T04:33:57.605Z,2.53
2024-05-09T04:36:28.239Z,2.37
2024-05-09T04:38:56.275Z,2.07
2024-05-09T04:41:27.146Z,1.97
2024-05-09T04:43:57.860Z,2.23
2024-05-09T04:46:28.923Z,2.37
2024-05-09T04:48:59.732Z,2.17
2024-05-09T04:51:41.540Z,2.50
2024-05-09T04:54:15.665Z,2.67
2024-05-09T04:56:53.879Z,3.13
2024-05-09T04:59:24.708Z,2.07
2024-05-09T05:01:55.656Z,2.60
2024-05-09T05:04:23.831Z,3.03
2024-05-09T05:06:54.523Z,2.70
2024-05-09T05:09:28.871Z,2.57
2024-05-09T05:11:59.941Z,2.40
2024-05-09T05:14:30.791Z,2.83
2024-05-09T05:17:01.481Z,3.10
2024-05-09T05:19:29.685Z,2.97
2024-05-09T05:22:00.347Z,3.20
2024-05-09T05:24:28.569Z,3.20
2024-05-09T05:26:59.398Z,3.00
2024-05-09T05:29:27.405Z,3.00
2024-05-09T05:32:01.132Z,3.13
2024-05-09T05:34:29.242Z,3.60
2024-05-09T05:37:00.755Z,3.23
2024-05-09T05:39:29.005Z,2.50
2024-05-09T05:41:59.553Z,3.37
2024-05-09T05:44:29.830Z,3.13
2024-05-09T05:47:03.488Z,2.87
2024-05-09T05:49:31.883Z,3.53
2024-05-09T05:52:02.722Z,2.53
2024-05-09T05:54:32.093Z,3.00
2024-05-09T05:57:20.382Z,2.77
2024-05-09T05:59:48.711Z,2.30
2024-05-09T06:02:22.235Z,2.23
2024-05-09T06:04:50.513Z,2.20
2024-05-09T06:07:21.421Z,2.23
2024-05-09T06:09:52.418Z,1.83
2024-05-09T06:12:23.651Z,2.70
2024-05-09T06:14:51.970Z,1.50
2024-05-09T06:17:53.116Z,2.30
2024-05-09T06:20:33.995Z,2.10
2024-05-09T06:23:05.048Z,2.20
2024-05-09T06:25:36.167Z,2.07
2024-05-09T06:28:32.771Z,2.20
2024-05-09T06:31:10.626Z,1.87
2024-05-09T06:33:49.042Z,1.70
2024-05-09T06:36:22.935Z,1.90
2024-05-09T06:38:51.137Z,1.80
2024-05-09T06:41:24.328Z,1.60
2024-05-09T06:43:59.559Z,2.23
2024-05-09T06:46:46.704Z,1.80
2024-05-09T06:49:17.863Z,1.87
2024-05-09T06:51:49.034Z,1.77
2024-05-09T06:54:18.671Z,1.60
2024-05-09T06:56:49.445Z,1.60
2024-05-09T06:59:25.190Z,1.83
2024-05-09T07:01:58.853Z,1.33
2024-05-09T07:04:29.787Z,1.57
2024-05-09T07:07:05.924Z,1.50
2024-05-09T07:09:36.367Z,1.60
2024-05-09T07:12:13.695Z,1.43
2024-05-09T07:14:42.065Z,1.23
2024-05-09T07:17:15.529Z,1.37
2024-05-09T07:19:46.346Z,1.30
2024-05-09T07:22:17.276Z,1.30
2024-05-09T07:24:53.119Z,1.50
2024-05-09T07:27:28.296Z,1.50
2024-05-09T07:29:56.481Z,1.70
2024-05-09T07:32:27.572Z,1.37
2024-05-09T07:34:59.566Z,1.83
2024-05-09T07:37:30.535Z,1.50
2024-05-09T07:39:58.725Z,1.43
2024-05-09T07:42:39.325Z,2.00
2024-05-09T07:45:43.030Z,1.33
2024-05-09T07:53:00.828Z,1.40
2024-05-09T07:54:17.402Z,1.67
2024-05-09T07:56:56.482Z,1.30
2024-05-09T07:59:27.212Z,1.33
2024-05-09T08:01:58.048Z,1.53
2024-05-09T08:05:32.576Z,1.45
2024-05-09T08:08:36.375Z,1.17
2024-05-09T08:11:55.208Z,0.95
2024-05-09T08:14:36.250Z,0.85
2024-05-09T08:17:13.655Z,0.90
2024-05-09T08:19:46.513Z,1.00
2024-05-09T08:22:32.364Z,0.88
2024-05-09T08:25:14.663Z,1.23
2024-05-09T08:27:52.948Z,1.05
2024-05-09T08:30:36.835Z,1.02
2024-05-09T08:33:11.529Z,0.90
2024-05-09T08:35:39.536Z,0.70
2024-05-09T08:38:21.247Z,0.70
2024-05-09T08:41:05.350Z,0.70
2024-05-09T08:43:46.633Z,1.13
2024-05-09T08:46:31.916Z,0.90
2024-05-09T08:49:15.655Z,0.82
2024-05-09T08:51:44.147Z,0.77
2024-05-09T08:54:14.950Z,0.77
2024-05-09T08:56:54.845Z,0.95
2024-05-09T08:59:39.556Z,1.00
2024-05-09T09:02:32.741Z,0.90
2024-05-09T09:05:08.152Z,0.80
2024-05-09T09:07:43.209Z,0.88
2024-05-09T09:10:24.910Z,1.08
2024-05-09T09:13:12.809Z,1.20
2024-05-09T09:15:52.435Z,1.10
2024-05-09T09:18:43.681Z,0.93
2024-05-09T09:21:16.419Z,1.05
2024-05-09T09:23:47.377Z,1.15
2024-05-09T09:26:28.998Z,1.10
2024-05-09T09:32:23.117Z,2.10
2024-05-09T09:34:55.098Z,0.80
2024-05-09T09:37:33.437Z,1.05
2024-05-09T09:40:04.743Z,0.88
2024-05-09T09:42:49.041Z,1.10
2024-05-09T09:45:37.958Z,1.00
2024-05-09T09:48:37.469Z,1.00
2024-05-09T09:51:47.150Z,1.00
2024-05-09T09:54:36.253Z,1.17
2024-05-09T09:57:23.569Z,1.00
2024-05-09T10:00:33.453Z,1.10
2024-05-09T10:03:24.271Z,1.00
2024-05-09T10:06:19.984Z,1.00
2024-05-09T10:09:26.733Z,0.95
2024-05-09T10:12:22.301Z,1.10
2024-05-09T10:15:22.944Z,0.98
2024-05-09T10:18:44.728Z,1.02
2024-05-09T10:21:20.564Z,1.00
2024-05-09T10:24:24.480Z,1.10
2024-05-09T10:27:39.256Z,1.13
2024-05-09T10:33:37.703Z,1.50
2024-05-09T10:37:31.828Z,2.83
2024-05-09T10:42:29.017Z,1.55
2024-05-09T10:52:09.813Z,1.10
2024-05-09T10:55:05.674Z,1.00
2024-05-09T10:58:16.888Z,1.08
2024-05-09T11:01:07.376Z,1.10
2024-05-09T11:04:03.301Z,1.10
2024-05-09T11:06:47.454Z,1.20
2024-05-09T11:09:47.520Z,0.90
2024-05-09T11:12:24.359Z,0.80
2024-05-09T11:15:10.236Z,0.90
2024-05-09T11:18:07.566Z,1.00
2024-05-09T11:20:46.903Z,0.68
2024-05-09T11:23:34.196Z,1.15
2024-05-09T11:26:45.619Z,1.00
2024-05-09T11:29:53.762Z,1.10
2024-05-09T11:33:04.510Z,1.10
2024-05-09T11:36:36.262Z,1.20
2024-05-09T11:43:39.989Z,1.10
2024-05-09T11:46:57.842Z,1.60
2024-05-09T11:49:56.794Z,1.27
2024-05-09T11:52:49.394Z,1.45
2024-05-09T12:00:07.349Z,1.50
2024-05-09T12:01:48.788Z,1.30
2024-05-09T12:02:59.791Z,1.20
2024-05-09T12:06:06.963Z,1.30
2024-05-09T12:08:42.879Z,1.38
2024-05-09T12:11:30.016Z,1.15
2024-05-09T12:14:02.691Z,0.98
2024-05-09T12:16:56.257Z,1.30
2024-05-09T12:19:27.126Z,1.35
2024-05-09T12:21:59.122Z,1.20
2024-05-09T12:24:32.424Z,1.13
2024-05-09T12:27:06.280Z,1.27
2024-05-09T12:29:38.935Z,1.13
2024-05-09T12:32:20.189Z,1.20
2024-05-09T12:34:56.084Z,1.20
2024-05-09T12:37:40.339Z,1.27
2024-05-09T12:40:23.078Z,1.40
2024-05-09T12:43:19.338Z,1.42
2024-05-09T12:45:53.660Z,1.50
2024-05-09T12:48:31.271Z,1.27
2024-05-09T12:51:33.220Z,1.33
2024-05-09T12:54:35.408Z,1.00
2024-05-09T12:57:22.476Z,1.38
2024-05-09T13:00:20.720Z,1.10
2024-05-09T13:03:29.566Z,1.15
2024-05-09T13:06:52.488Z,1.00
2024-05-09T13:17:05.385Z,1.10
2024-05-09T13:20:23.003Z,0.90
2024-05-09T13:23:43.970Z,1.38
2024-05-09T13:30:43.262Z,1.10
2024-05-09T13:44:55.218Z,1.00
2024-05-09T13:47:25.897Z,1.38
2024-05-09T13:49:56.550Z,1.23
2024-05-09T13:52:24.742Z,1.10
2024-05-09T13:54:55.239Z,1.33
2024-05-09T13:57:23.015Z,0.95
2024-05-09T13:59:53.516Z,1.20
2024-05-09T14:02:21.493Z,1.10
2024-05-09T14:04:54.605Z,1.73
2024-05-09T14:07:25.329Z,0.90
2024-05-09T14:09:53.516Z,1.13
2024-05-09T14:12:23.796Z,1.02
2024-05-09T14:14:51.532Z,1.20
2024-05-09T14:17:24.840Z,1.02
2024-05-09T14:19:55.291Z,0.95
2024-05-09T14:22:25.803Z,1.38
2024-05-09T14:24:53.564Z,1.23
2024-05-09T14:27:24.327Z,1.13
2024-05-09T14:29:52.101Z,1.00
2024-05-09T14:32:22.741Z,1.42
2024-05-09T14:34:50.600Z,1.10
2024-05-09T14:37:23.623Z,1.33
2024-05-09T14:39:51.296Z,1.27
2024-05-09T14:44:51.543Z,1.23
2024-05-09T14:47:21.582Z,1.20
2024-05-09T14:49:52.149Z,1.42
2024-05-09T14:52:22.696Z,0.93
2024-05-09T14:55:00.015Z,1.33
2024-05-09T14:57:28.804Z,1.33
2024-05-09T14:59:59.152Z,1.40
2024-05-09T15:02:27.107Z,1.30
2024-05-09T15:04:57.489Z,1.40
2024-05-09T15:07:28.061Z,1.40
2024-05-09T15:09:59.160Z,1.65
2024-05-09T15:12:26.918Z,1.73
2024-05-09T15:14:57.209Z,1.58
2024-05-09T15:17:25.084Z,1.60
2024-05-09T15:19:55.572Z,1.23
2024-05-09T15:22:23.422Z,1.30
2024-05-09T15:24:56.464Z,1.17
2024-05-09T15:27:24.179Z,1.27
2024-05-09T15:29:54.768Z,1.40
2024-05-09T15:32:29.717Z,1.58
2024-05-09T15:35:00.317Z,1.10
2024-05-09T15:37:28.062Z,1.25
2024-05-09T15:40:01.808Z,1.23
2024-05-09T15:42:29.724Z,0.95
2024-05-09T15:45:01.041Z,1.08
2024-05-09T15:47:28.899Z,1.50
2024-05-09T15:50:01.655Z,1.23
2024-05-09T15:52:29.524Z,1.45
2024-05-09T15:55:02.740Z,1.73
2024-05-09T15:57:30.805Z,1.98
2024-05-09T16:00:01.275Z,1.70
2024-05-09T16:02:30.108Z,1.42
2024-05-09T16:05:01.092Z,1.70
2024-05-09T16:07:30.914Z,13.52
2024-05-09T16:10:06.724Z,2.42
2024-05-09T16:12:34.918Z,2.17
2024-05-09T16:15:05.460Z,2.30
2024-05-09T16:17:33.413Z,2.08
2024-05-09T16:20:08.931Z,2.45
2024-05-09T16:22:39.950Z,2.45
2024-05-09T16:25:13.120Z,1.90
2024-05-09T16:27:41.432Z,1.63
2024-05-09T16:30:20.840Z,1.60
2024-05-09T16:32:53.560Z,2.10
2024-05-09T16:35:23.902Z,1.88
2024-05-09T16:37:51.953Z,1.50
2024-05-09T16:40:36.288Z,1.10
2024-05-09T16:43:11.310Z,1.58
2024-05-09T16:45:41.139Z,0.90
2024-05-09T16:48:13.360Z,0.90
2024-05-09T16:50:41.202Z,0.90
2024-05-09T16:53:11.505Z,1.10
2024-05-09T16:55:41.930Z,1.00
2024-05-09T16:58:12.833Z,1.20
2024-05-09T17:00:43.342Z,1.10
2024-05-09T17:03:16.634Z,0.90
2024-05-09T17:05:47.246Z,1.00
2024-05-09T17:08:20.127Z,1.05
2024-05-09T17:10:51.285Z,0.82
2024-05-09T17:13:22.925Z,0.93
2024-05-09T17:15:53.967Z,0.82
2024-05-09T17:18:24.828Z,1.17
2024-05-09T17:20:55.354Z,1.05
2024-05-09T17:23:23.135Z,0.90
2024-05-09T17:25:57.096Z,1.30
2024-05-09T17:28:25.067Z,1.00
2024-05-09T17:30:55.443Z,1.30
2024-05-09T17:33:24.928Z,1.33
2024-05-09T17:35:55.643Z,1.25
2024-05-09T17:38:23.990Z,1.20
2024-05-09T17:40:57.465Z,1.58
2024-05-09T17:43:25.621Z,1.20
2024-05-09T17:45:56.115Z,1.30
2024-05-09T17:48:23.921Z,1.27
2024-05-09T17:50:55.984Z,1.17
2024-05-09T17:53:23.644Z,1.40
2024-05-09T17:55:56.688Z,1.23
2024-05-09T17:58:27.646Z,1.38
2024-05-09T18:00:58.266Z,1.73
2024-05-09T18:03:26.417Z,1.35
2024-05-09T18:05:57.034Z,1.60
2024-05-09T18:08:25.160Z,1.23
2024-05-09T18:10:58.548Z,1.60
2024-05-09T18:13:27.186Z,1.60
2024-05-09T18:15:57.859Z,1.10
2024-05-09T18:18:30.278Z,1.63
2024-05-09T18:21:00.941Z,1.38
2024-05-09T18:23:28.713Z,1.50
2024-05-09T18:26:02.421Z,1.20
2024-05-09T18:28:30.564Z,1.55
2024-05-09T18:31:00.856Z,1.40
2024-05-09T18:33:28.727Z,1.27
2024-05-09T18:35:59.414Z,1.13
2024-05-09T18:38:27.366Z,1.37
2024-05-09T18:41:00.624Z,1.50
2024-05-09T18:43:37.997Z,1.50
2024-05-09T18:46:15.557Z,1.50
2024-05-09T18:48:43.773Z,1.87
2024-05-09T18:51:14.773Z,2.00
2024-05-09T18:53:44.655Z,1.77
2024-05-09T18:56:18.562Z,2.00
2024-05-09T18:58:47.138Z,1.40
2024-05-09T19:01:17.458Z,1.50
2024-05-09T19:03:45.462Z,1.40
2024-05-09T19:06:16.129Z,1.43
2024-05-09T19:08:43.830Z,1.70
2024-05-09T19:11:17.364Z,2.43
2024-05-09T19:13:45.271Z,1.60
2024-05-09T19:16:15.969Z,1.93
2024-05-09T19:18:54.935Z,1.60
2024-05-09T19:21:24.200Z,1.90
2024-05-09T19:23:59.010Z,1.90
2024-05-09T19:26:30.173Z,2.07
2024-05-09T19:29:00.760Z,2.07
2024-05-09T19:31:31.429Z,2.07
2024-05-09T19:34:02.284Z,1.90
2024-05-09T19:36:30.376Z,2.13
2024-05-09T19:39:01.351Z,2.17
2024-05-09T19:41:32.043Z,2.37
2024-05-09T19:44:02.586Z,2.07
2024-05-09T19:46:32.906Z,2.00
2024-05-09T19:49:07.285Z,1.97
2024-05-09T19:51:35.542Z,2.13
2024-05-09T19:54:06.115Z,1.90
2024-05-09T19:56:44.633Z,2.57
2024-05-09T19:59:15.476Z,3.03
2024-05-09T20:01:43.275Z,2.80
2024-05-09T20:04:13.756Z,2.93
2024-05-09T20:06:42.524Z,3.50
2024-05-09T20:09:13.012Z,4.93
2024-05-09T20:11:43.907Z,3.90
2024-05-09T20:14:15.845Z,3.53
2024-05-09T20:16:45.125Z,4.40
2024-05-09T20:19:18.369Z,4.20
2024-05-09T20:21:46.157Z,3.73
2024-05-09T20:24:16.953Z,3.90
2024-05-09T20:26:47.573Z,3.50
2024-05-09T20:29:18.636Z,4.20
2024-05-09T20:31:46.371Z,4.33
2024-05-09T20:34:16.774Z,3.40
2024-05-09T20:36:44.403Z,2.77
2024-05-09T20:39:14.686Z,3.70
2024-05-09T20:41:46.657Z,3.50
2024-05-09T20:44:17.374Z,3.43
2024-05-09T20:46:45.547Z,2.97
2024-05-09T20:49:17.086Z,3.07
2024-05-09T20:51:45.244Z,3.10
2024-05-09T20:54:15.646Z,3.97
2024-05-09T20:56:50.994Z,3.40
2024-05-09T20:59:24.203Z,3.27
2024-05-09T21:01:57.251Z,3.47
2024-05-09T21:04:27.978Z,3.27
2024-05-09T21:06:55.921Z,3.80
2024-05-09T21:09:26.291Z,3.30
2024-05-09T21:11:54.293Z,3.50
2024-05-09T21:14:27.459Z,3.07
2024-05-09T21:16:55.379Z,3.27
2024-05-09T21:19:26.149Z,3.40
2024-05-09T21:21:54.039Z,3.07
2024-05-09T21:24:24.516Z,3.20
2024-05-09T21:26:52.719Z,3.20
2024-05-09T21:29:23.262Z,3.30
2024-05-09T21:31:53.808Z,2.20
2024-05-09T21:34:24.556Z,2.93
2024-05-09T21:36:52.372Z,3.13
2024-05-09T21:39:23.854Z,2.70
2024-05-09T21:41:51.900Z,3.10
2024-05-09T21:44:25.079Z,2.87
2024-05-09T21:46:55.476Z,2.90
2024-05-09T21:49:25.770Z,2.90
2024-05-09T21:51:55.011Z,2.83
2024-05-09T21:54:25.371Z,2.63
2024-05-09T21:56:55.249Z,2.90
2024-05-09T21:59:27.862Z,2.97
2024-05-09T22:01:58.932Z,2.63
2024-05-09T22:04:29.552Z,2.83
2024-05-09T22:06:57.350Z,2.57
2024-05-09T22:09:27.951Z,2.37
2024-05-09T22:11:57.569Z,2.80
2024-05-09T22:14:28.535Z,3.00
2024-05-09T22:16:58.863Z,2.63
2024-05-09T22:19:29.991Z,2.67
2024-05-09T22:21:57.755Z,2.30
2024-05-09T22:24:28.068Z,2.80
2024-05-09T22:26:55.718Z,2.80
2024-05-09T22:29:25.977Z,2.33
2024-05-09T22:31:53.798Z,2.73
2024-05-09T22:34:26.981Z,2.90
2024-05-09T22:36:54.777Z,2.60
2024-05-09T22:39:25.676Z,3.10
2024-05-09T22:41:54.097Z,2.90
2024-05-09T22:44:24.578Z,2.67
2024-05-09T22:46:58.436Z,2.67
2024-05-09T22:49:31.683Z,2.37
2024-05-09T22:51:59.676Z,2.93
2024-05-09T22:54:30.030Z,3.57
2024-05-09T22:56:58.032Z,2.70
2024-05-09T22:59:28.217Z,2.70
2024-05-09T23:01:55.898Z,2.73
2024-05-09T23:04:26.379Z,2.73
2024-05-09T23:06:56.686Z,3.10
2024-05-09T23:09:33.532Z,2.50
2024-05-09T23:12:01.523Z,2.37
2024-05-09T23:14:31.705Z,2.83
2024-05-09T23:16:59.525Z,3.00
2024-05-09T23:19:29.890Z,3.10
2024-05-09T23:22:00.826Z,2.50
2024-05-09T23:24:32.568Z,2.60
2024-05-09T23:27:00.089Z,2.47
2024-05-09T23:29:30.417Z,2.50
2024-05-09T23:31:58.208Z,2.77
2024-05-09T23:34:28.616Z,2.80
2024-05-09T23:36:56.496Z,2.67
2024-05-09T23:39:29.508Z,1.87
2024-05-09T23:41:57.269Z,2.23
2024-05-09T23:44:27.679Z,2.40
2024-05-09T23:46:55.322Z,2.30
2024-05-09T23:49:25.658Z,2.77
2024-05-09T23:51:53.662Z,2.40
2024-05-09T23:54:24.142Z,2.47
2024-05-09T23:56:54.595Z,2.40
2024-05-09T23:59:36.381Z,3.37
